Main page
METAR-TAF:

METAR-TAF

Airports :

Bad Vöslau, Austria

Bad Vöslau Airport

latitude: 47-57-52N, longitude: 016-15-34E, elevation: 233 m

Current weather observation

The report was made 5 hours and 0 minutes ago, at 16:00 UTC
Wind 4 kt from the Southwest
Temperature 4°C
Humidity 60%
Pressure

METAR: LOAV 201600Z 22004KT 20KM BKN040SC 04/M03

Time: 22:00 (21:00 UTC)

Forecast

The report was made 7 hours and 35 minutes ago, at 13:25 UTC
Forecast valid from 20 at 13 UTC to 20 at 21 UTC
Wind 8 kt from the West/Northwest
Visibility 10 km or more
Scattered clouds at a height of 4000 ft
Scattered clouds at a height of 30000 ft
Becoming
from 20 at 13 UTC to 20 at 15 UTC
Wind 5 kt from the Southeast
Temporary
from 20 at 13 UTC to 20 at 15 UTC
Visibility: 4000 m
Few clouds at a height of 500 ft
Broken clouds at a height of 2000 ft
light snow showers

TAF: LOAV 201325Z 2013/2021 30008KT 9999 SCT040 SCT300 BECMG 2013/2015 13005KT TEMPO 2013/2015 4000 -SHSN FEW005 BKN020

Weather observations and forecasts of more than 4000 airports (METAR and TAF reports).

The available stations are represented by yellow and red dots on the map.

Hover mouse over dot to see the name of the station.

Then click to see weather observations and forecasts.

To change the map : click on the green buttons with a black cross to zoom in, on the green button with a dash to zoom out, or on the green arrows for adjacent maps.


METAR-TAF: